createdAt,value
2022-11-02T00:03:58.896Z,97379.63
2022-11-02T00:09:19.454Z,97368.25
2022-11-02T00:14:40.149Z,97367.50
2022-11-02T00:20:00.801Z,97363.53
2022-11-02T00:25:24.268Z,97366.03
2022-11-02T00:30:45.351Z,97373.78
2022-11-02T00:36:06.407Z,97382.41
2022-11-02T00:41:27.439Z,97379.59
2022-11-02T00:46:48.005Z,97380.69
2022-11-02T00:52:09.419Z,97381.72
2022-11-02T00:57:30.215Z,97384.78
2022-11-02T01:02:51.202Z,97382.66
2022-11-02T01:08:11.881Z,97381.97
2022-11-02T01:13:32.563Z,97377.88
2022-11-02T01:18:55.246Z,97386.31
2022-11-02T01:24:15.715Z,97380.84
2022-11-02T01:29:36.416Z,97372.00
2022-11-02T01:34:57.100Z,97376.31
2022-11-02T01:40:17.920Z,97369.28
2022-11-02T01:45:38.923Z,97375.16
2022-11-02T01:51:04.805Z,97375.03
2022-11-02T01:56:31.200Z,97371.09
2022-11-02T02:01:51.920Z,97363.56
2022-11-02T02:07:15.042Z,97364.38
2022-11-02T02:12:38.910Z,97367.88
2022-11-02T02:18:07.845Z,97363.13
2022-11-02T02:24:01.490Z,97363.59
2022-11-02T02:29:30.502Z,97365.97
2022-11-02T02:35:00.936Z,97369.53
2022-11-02T02:40:30.773Z,97367.75
2022-11-02T02:46:00.744Z,97370.31
2022-11-02T02:51:27.873Z,97367.63
2022-11-02T02:56:54.949Z,97364.13
2022-11-02T03:02:23.263Z,97364.72
2022-11-02T03:07:44.445Z,97366.19
2022-11-02T03:13:26.447Z,97375.22
2022-11-02T03:19:05.917Z,97376.00
2022-11-02T03:24:36.424Z,97372.44
2022-11-02T03:30:22.812Z,97379.47
2022-11-02T03:35:58.230Z,97387.38
2022-11-02T03:41:23.470Z,97387.22
2022-11-02T03:46:45.976Z,97393.47
2022-11-02T03:52:15.900Z,97403.09
2022-11-02T03:57:54.982Z,97405.44
2022-11-02T04:03:23.454Z,97414.44
2022-11-02T04:08:47.522Z,97407.78
2022-11-02T04:14:28.109Z,97407.88
2022-11-02T04:19:51.253Z,97425.00
2022-11-02T04:25:16.502Z,97428.44
2022-11-02T04:31:00.793Z,97421.41
2022-11-02T04:36:28.963Z,97431.03
2022-11-02T04:41:51.058Z,97422.19
2022-11-02T04:47:22.896Z,97414.78
2022-11-02T04:52:44.557Z,97428.88
2022-11-02T04:58:06.660Z,97422.81
2022-11-02T05:03:28.046Z,97416.09
2022-11-02T05:08:48.857Z,97422.44
2022-11-02T05:14:09.780Z,97421.63
2022-11-02T05:19:30.993Z,97423.34
2022-11-02T05:24:53.565Z,97431.03
2022-11-02T05:30:15.077Z,97429.13
2022-11-02T05:35:37.853Z,97440.44
2022-11-02T05:40:59.917Z,97440.13
2022-11-02T05:46:24.577Z,97437.44
2022-11-02T05:51:45.206Z,97441.50
2022-11-02T05:57:05.792Z,97444.03
2022-11-02T06:02:27.036Z,97446.44
2022-11-02T06:07:47.683Z,97449.00
2022-11-02T06:13:08.338Z,97456.16
2022-11-02T06:18:29.368Z,97448.09
2022-11-02T06:23:50.846Z,97461.81
2022-11-02T06:29:11.423Z,97463.94
2022-11-02T06:34:32.026Z,97473.44
2022-11-02T06:39:52.579Z,97482.19
2022-11-02T06:45:13.747Z,97490.53
2022-11-02T06:50:34.653Z,97477.22
2022-11-02T06:55:57.244Z,97473.66
2022-11-02T07:01:18.375Z,97481.19
2022-11-02T07:06:39.641Z,97483.44
2022-11-02T07:12:00.378Z,97481.16
2022-11-02T07:17:21.075Z,97496.16
2022-11-02T07:22:41.974Z,97493.88
2022-11-02T07:28:03.698Z,97501.69
2022-11-02T07:33:24.797Z,97511.44
2022-11-02T07:38:45.362Z,97505.97
2022-11-02T07:44:06.646Z,97513.78
2022-11-02T07:49:28.736Z,97503.19
2022-11-02T07:54:49.589Z,97509.41
2022-11-02T08:00:12.029Z,97507.97
2022-11-02T08:05:38.740Z,97508.28
2022-11-02T08:11:08.270Z,97512.75
2022-11-02T08:16:30.534Z,97518.66
2022-11-02T08:21:51.564Z,97522.81
2022-11-02T08:27:12.209Z,97530.31
2022-11-02T08:32:32.961Z,97540.34
2022-11-02T08:37:57.902Z,97546.13
2022-11-02T08:43:18.536Z,97546.28
2022-11-02T08:48:39.217Z,97542.31
2022-11-02T08:53:59.912Z,97552.78
2022-11-02T08:59:20.599Z,97540.53
2022-11-02T09:04:41.332Z,97547.03
2022-11-02T09:10:02.532Z,97545.09
2022-11-02T09:15:23.376Z,97541.44
2022-11-02T09:20:44.294Z,97539.97
2022-11-02T09:26:05.296Z,97546.44
2022-11-02T09:31:26.179Z,97547.84
2022-11-02T09:36:46.912Z,97556.91
2022-11-02T09:42:12.963Z,97555.13
2022-11-02T09:53:56.524Z,97549.91
2022-11-02T09:59:20.191Z,97542.50
2022-11-02T10:05:18.650Z,97539.19
2022-11-02T10:11:01.026Z,97535.66
2022-11-02T10:16:37.120Z,97531.31
2022-11-02T10:21:58.750Z,97534.63
2022-11-02T10:27:26.728Z,97540.00
2022-11-02T10:32:52.870Z,97543.03
2022-11-02T10:38:22.754Z,97540.13
2022-11-02T10:44:10.111Z,97538.63
2022-11-02T10:49:50.414Z,97538.22
2022-11-02T10:55:45.827Z,97537.81
2022-11-02T11:01:11.624Z,97534.09
2022-11-02T11:06:35.545Z,97530.91
2022-11-02T11:12:04.641Z,97538.72
2022-11-02T11:23:26.669Z,97521.56
2022-11-02T11:28:55.979Z,97511.13
2022-11-02T11:34:29.563Z,97505.41
2022-11-02T11:39:55.041Z,97502.31
2022-11-02T11:45:31.117Z,97514.09
2022-11-02T11:50:51.906Z,97515.78
2022-11-02T11:56:26.268Z,97514.03
2022-11-02T12:01:47.680Z,97508.91
2022-11-02T12:07:31.995Z,97509.56
2022-11-02T12:12:58.915Z,97513.84
2022-11-02T12:19:01.335Z,97500.72
2022-11-02T12:24:25.255Z,97497.50
2022-11-02T12:29:54.879Z,97489.34
2022-11-02T12:35:37.691Z,97486.63
2022-11-02T12:41:08.535Z,97483.41
2022-11-02T12:46:41.346Z,97482.44
2022-11-02T12:52:29.334Z,97488.56
2022-11-02T12:57:53.733Z,97488.03
2022-11-02T13:03:35.878Z,97488.03
2022-11-02T13:09:13.277Z,97474.78
2022-11-02T13:14:41.062Z,97479.44
2022-11-02T13:20:27.455Z,97468.75
2022-11-02T13:25:52.503Z,97473.84
2022-11-02T13:31:19.537Z,97470.00
2022-11-02T13:36:41.001Z,97470.97
2022-11-02T13:42:10.269Z,97474.94
2022-11-02T13:47:37.252Z,97480.00
2022-11-02T13:53:03.146Z,97477.44
2022-11-02T13:58:33.293Z,97491.44
2022-11-02T14:04:01.914Z,97494.34
2022-11-02T14:09:44.669Z,97500.03
2022-11-02T14:15:34.679Z,97509.31
2022-11-02T14:20:55.987Z,97509.19
2022-11-02T14:26:33.569Z,97516.94
2022-11-02T14:32:00.256Z,97509.25
2022-11-02T14:37:51.416Z,97512.56
2022-11-02T14:43:40.262Z,97506.31
2022-11-02T14:49:02.995Z,97506.06
2022-11-02T14:54:24.162Z,97517.25
2022-11-02T14:59:49.954Z,97508.59
2022-11-02T15:05:22.886Z,97512.59
2022-11-02T15:10:46.006Z,97519.50
2022-11-02T15:16:12.733Z,97505.84
2022-11-02T15:21:33.568Z,97518.53
2022-11-02T15:26:59.581Z,97518.41
2022-11-02T15:32:25.943Z,97513.84
2022-11-02T15:38:11.225Z,97506.13
2022-11-02T15:44:05.434Z,97515.78
2022-11-02T15:50:04.631Z,97508.06
2022-11-02T15:55:47.451Z,97500.63
2022-11-02T16:01:19.328Z,97509.00
2022-11-02T16:06:43.218Z,97529.09
2022-11-02T16:12:13.117Z,97531.84
2022-11-02T16:17:33.748Z,97531.41
2022-11-02T16:22:55.547Z,97524.25
2022-11-02T16:28:33.568Z,97526.03
2022-11-02T16:33:59.936Z,97534.97
2022-11-02T16:39:23.173Z,97528.88
2022-11-02T16:44:55.363Z,97536.16
2022-11-02T16:50:21.610Z,97536.28
2022-11-02T16:55:47.601Z,97545.50
2022-11-02T17:01:20.848Z,97557.41
2022-11-02T17:06:43.742Z,97556.38
2022-11-02T17:12:15.309Z,97568.59
2022-11-02T17:17:39.697Z,97583.03
2022-11-02T17:23:02.648Z,97588.78
2022-11-02T17:28:46.356Z,97596.56
2022-11-02T17:34:10.274Z,97593.88
2022-11-02T17:39:33.689Z,97591.75
2022-11-02T17:44:54.432Z,97577.69
2022-11-02T17:50:15.140Z,97598.13
2022-11-02T17:55:37.410Z,97585.75
2022-11-02T18:00:58.276Z,97588.38
2022-11-02T18:06:18.949Z,97593.03
2022-11-02T18:11:40.159Z,97606.41
2022-11-02T18:17:00.867Z,97603.75
2022-11-02T18:22:21.526Z,97599.78
2022-11-02T18:27:44.029Z,97586.28
2022-11-02T18:33:07.375Z,97582.97
2022-11-02T18:38:31.695Z,97589.00
2022-11-02T18:43:53.349Z,97604.34
2022-11-02T18:49:18.065Z,97608.84
2022-11-02T18:54:39.012Z,97626.03
2022-11-02T19:00:02.474Z,97598.84
2022-11-02T19:05:41.924Z,97606.72
2022-11-02T19:11:02.656Z,97602.25
2022-11-02T19:16:23.271Z,97600.72
2022-11-02T19:21:44.090Z,97615.22
2022-11-02T19:27:06.476Z,97615.31
2022-11-02T19:32:27.583Z,97608.44
2022-11-02T19:37:48.592Z,97606.03
2022-11-02T19:43:09.522Z,97597.16
2022-11-02T19:48:32.091Z,97603.88
2022-11-02T19:53:58.498Z,97608.38
2022-11-02T19:59:19.574Z,97599.78
2022-11-02T20:04:42.575Z,97607.09
2022-11-02T20:10:04.049Z,97605.38
2022-11-02T20:15:24.697Z,97597.56
2022-11-02T20:20:45.268Z,97598.81
2022-11-02T20:26:12.459Z,97608.75
2022-11-02T20:31:39.181Z,97612.50
2022-11-02T20:37:00.217Z,97606.53
2022-11-02T20:42:22.097Z,97614.66
2022-11-02T20:47:42.818Z,97616.69
2022-11-02T20:53:04.802Z,97615.09
2022-11-02T20:58:26.511Z,97618.09
2022-11-02T21:03:47.427Z,97603.59
2022-11-02T21:09:12.022Z,97610.91
2022-11-02T21:14:33.227Z,97616.63
2022-11-02T21:20:02.777Z,97613.28
2022-11-02T21:25:36.460Z,97613.38
2022-11-02T21:31:10.833Z,97612.75
2022-11-02T21:36:32.658Z,97618.09
2022-11-02T21:41:53.542Z,97616.19
2022-11-02T21:47:15.346Z,97618.94
2022-11-02T21:52:41.056Z,97612.09
2022-11-02T21:58:04.957Z,97615.31
2022-11-02T22:03:26.065Z,97626.47
2022-11-02T22:08:49.440Z,97624.59
2022-11-02T22:14:10.528Z,97612.13
2022-11-02T22:19:31.287Z,97618.75
2022-11-02T22:24:51.935Z,97622.69
2022-11-02T22:30:13.091Z,97624.47
2022-11-02T22:35:37.831Z,97633.59
2022-11-02T22:41:02.616Z,97632.88
2022-11-02T22:46:25.174Z,97634.47
2022-11-02T22:51:48.104Z,97641.81
2022-11-02T22:57:08.967Z,97641.34
2022-11-02T23:02:29.814Z,97639.47
2022-11-02T23:07:50.392Z,97636.97
2022-11-02T23:13:11.304Z,97642.91
2022-11-02T23:18:51.916Z,97635.94
2022-11-02T23:24:31.299Z,97637.38
2022-11-02T23:30:11.146Z,97630.75
2022-11-02T23:35:50.269Z,97628.25
2022-11-02T23:41:10.844Z,97635.19
2022-11-02T23:46:31.427Z,97623.66
2022-11-02T23:52:10.523Z,97622.63
2022-11-02T23:57:31.243Z,97622.59
